createdAt,value
2022-08-17T00:01:53.992Z,23.66
2022-08-17T00:03:55.593Z,23.38
2022-08-17T00:05:58.531Z,23.51
2022-08-17T00:08:00.274Z,23.58
2022-08-17T00:10:01.805Z,23.61
2022-08-17T00:12:42.595Z,23.70
2022-08-17T00:14:26.910Z,23.71
2022-08-17T00:16:56.047Z,23.79
2022-08-17T00:19:00.918Z,23.46
2022-08-17T00:21:10.838Z,23.60
2022-08-17T00:23:13.123Z,23.49
2022-08-17T00:25:15.847Z,23.58
2022-08-17T00:27:18.960Z,23.55
2022-08-17T00:29:20.475Z,23.53
2022-08-17T00:31:21.990Z,23.55
2022-08-17T00:33:24.374Z,23.60
2022-08-17T00:35:26.255Z,23.65
2022-08-17T00:37:27.755Z,23.70
2022-08-17T00:39:29.365Z,23.81
2022-08-17T00:41:31.039Z,23.63
2022-08-17T00:43:35.568Z,23.63
2022-08-17T00:45:37.049Z,23.68
2022-08-17T00:47:38.544Z,23.69
2022-08-17T00:49:40.061Z,23.76
2022-08-17T00:51:42.563Z,23.85
2022-08-17T00:53:44.589Z,23.75
2022-08-17T00:55:46.555Z,23.71
2022-08-17T00:57:51.261Z,23.81
2022-08-17T01:00:03.190Z,23.59
2022-08-17T01:02:05.353Z,23.74
2022-08-17T01:04:06.871Z,23.66
2022-08-17T01:06:08.412Z,23.70
2022-08-17T01:08:11.205Z,23.57
2022-08-17T01:11:00.251Z,23.74
2022-08-17T01:12:34.393Z,23.41
2022-08-17T01:14:36.200Z,23.52
2022-08-17T01:16:39.051Z,23.65
2022-08-17T01:18:40.573Z,23.60
2022-08-17T01:20:48.122Z,23.56
2022-08-17T01:22:51.807Z,23.73
2022-08-17T01:24:57.162Z,23.57
2022-08-17T01:26:58.661Z,23.63
2022-08-17T01:29:01.562Z,23.61
2022-08-17T01:31:03.443Z,23.35
2022-08-17T01:33:04.987Z,23.51
2022-08-17T01:35:07.290Z,23.66
2022-08-17T01:37:08.802Z,23.55
2022-08-17T01:39:12.168Z,23.54
2022-08-17T01:41:14.208Z,23.46
2022-08-17T01:43:16.351Z,23.53
2022-08-17T01:45:18.625Z,23.31
2022-08-17T01:47:20.161Z,23.25
2022-08-17T01:49:21.666Z,23.28
2022-08-17T01:51:23.521Z,23.36
2022-08-17T01:53:26.425Z,23.21
2022-08-17T01:55:32.645Z,23.25
2022-08-17T01:57:34.532Z,23.24
2022-08-17T01:59:36.108Z,23.10
2022-08-17T02:01:37.696Z,22.96
2022-08-17T02:03:39.230Z,23.00
2022-08-17T02:05:40.861Z,23.02
2022-08-17T02:07:59.955Z,23.09
2022-08-17T02:10:02.320Z,22.94
2022-08-17T02:12:38.358Z,23.02
2022-08-17T02:14:27.650Z,22.87
2022-08-17T02:16:29.128Z,22.77
2022-08-17T02:18:39.604Z,22.70
2022-08-17T02:20:42.782Z,22.85
2022-08-17T02:22:45.079Z,22.72
2022-08-17T02:25:01.187Z,22.76
2022-08-17T02:27:05.084Z,22.62
2022-08-17T02:29:06.563Z,22.80
2022-08-17T02:31:08.519Z,22.83
2022-08-17T02:33:10.040Z,22.94
2022-08-17T02:35:11.532Z,22.80
2022-08-17T02:37:13.339Z,22.87
2022-08-17T02:39:14.818Z,22.85
2022-08-17T02:41:16.323Z,22.80
2022-08-17T02:43:19.189Z,22.96
2022-08-17T02:45:22.198Z,22.83
2022-08-17T02:47:24.023Z,22.77
2022-08-17T02:49:25.531Z,22.83
2022-08-17T02:51:27.214Z,23.04
2022-08-17T02:53:33.681Z,23.15
2022-08-17T02:55:38.777Z,23.13
2022-08-17T02:57:40.627Z,23.21
2022-08-17T02:59:48.788Z,23.28
2022-08-17T03:01:50.759Z,23.38
2022-08-17T03:03:52.299Z,23.54
2022-08-17T03:05:53.809Z,23.49
2022-08-17T03:07:55.342Z,23.58
2022-08-17T03:09:56.834Z,23.66
2022-08-17T03:12:03.358Z,23.65
2022-08-17T03:14:04.902Z,23.58
2022-08-17T03:16:08.118Z,23.77
2022-08-17T03:18:09.607Z,23.69
2022-08-17T03:20:20.755Z,23.70
2022-08-17T03:22:35.651Z,23.60
2022-08-17T03:24:38.631Z,23.41
2022-08-17T03:26:41.480Z,23.36
2022-08-17T03:28:42.992Z,23.34
2022-08-17T03:30:44.501Z,23.47
2022-08-17T03:32:48.122Z,23.39
2022-08-17T03:34:49.646Z,23.49
2022-08-17T03:36:51.152Z,23.39
2022-08-17T03:38:52.664Z,23.31
2022-08-17T03:40:57.975Z,23.26
2022-08-17T03:43:03.942Z,23.18
2022-08-17T03:45:06.713Z,23.51
2022-08-17T03:47:08.219Z,23.43
2022-08-17T03:49:11.209Z,23.54
2022-08-17T03:51:14.873Z,23.74
2022-08-17T03:53:17.350Z,23.81
2022-08-17T03:55:18.895Z,23.65
2022-08-17T03:57:20.434Z,23.80
2022-08-17T03:59:22.540Z,23.95
2022-08-17T04:01:24.379Z,23.96
2022-08-17T04:03:25.970Z,23.96
2022-08-17T04:05:28.912Z,24.07
2022-08-17T04:07:30.779Z,24.19
2022-08-17T04:09:32.311Z,24.14
2022-08-17T04:11:34.019Z,24.09
2022-08-17T04:13:35.525Z,24.13
2022-08-17T04:15:37.079Z,24.22
2022-08-17T04:17:38.585Z,24.13
2022-08-17T04:19:40.092Z,23.93
2022-08-17T04:21:42.963Z,23.82
2022-08-17T04:23:44.504Z,23.69
2022-08-17T04:25:46.548Z,23.87
2022-08-17T04:27:48.089Z,23.80
2022-08-17T04:29:54.851Z,23.67
2022-08-17T04:31:57.410Z,23.66
2022-08-17T04:33:58.903Z,23.60
2022-08-17T04:36:01.953Z,23.56
2022-08-17T04:38:04.901Z,23.55
2022-08-17T04:40:06.852Z,23.52
2022-08-17T04:42:09.041Z,23.57
2022-08-17T04:44:10.561Z,23.47
2022-08-17T04:46:13.703Z,23.64
2022-08-17T04:48:15.191Z,23.63
2022-08-17T04:50:17.722Z,23.67
2022-08-17T04:52:42.652Z,23.60
2022-08-17T04:54:42.067Z,23.65
2022-08-17T04:56:43.706Z,23.44
2022-08-17T04:58:46.081Z,23.32
2022-08-17T05:00:47.661Z,23.26
2022-08-17T05:02:49.850Z,23.42
2022-08-17T05:04:51.945Z,23.17
2022-08-17T05:06:53.556Z,23.10
2022-08-17T05:08:55.091Z,23.30
2022-08-17T05:10:57.942Z,23.25
2022-08-17T05:12:59.476Z,23.36
2022-08-17T05:15:00.981Z,23.41
2022-08-17T05:17:07.223Z,23.21
2022-08-17T05:19:12.597Z,23.53
2022-08-17T05:21:14.260Z,23.64
2022-08-17T05:23:16.807Z,23.54
2022-08-17T05:25:18.985Z,23.58
2022-08-17T05:27:30.842Z,23.69
2022-08-17T05:29:37.020Z,23.48
2022-08-17T05:31:38.623Z,23.53
2022-08-17T05:33:44.392Z,23.62
2022-08-17T05:35:48.564Z,23.68
2022-08-17T05:37:50.114Z,23.71
2022-08-17T05:39:52.111Z,23.46
2022-08-17T05:41:53.661Z,23.75
2022-08-17T05:43:56.832Z,23.53
2022-08-17T05:46:00.769Z,23.81
2022-08-17T05:48:02.472Z,23.97
2022-08-17T05:50:09.437Z,23.92
2022-08-17T05:52:20.639Z,24.15
2022-08-17T05:54:25.992Z,24.35
2022-08-17T05:56:31.630Z,24.09
2022-08-17T05:58:36.039Z,24.38
2022-08-17T06:00:42.158Z,24.38
2022-08-17T06:02:48.866Z,24.61
2022-08-17T06:04:54.867Z,24.80
2022-08-17T06:06:58.599Z,25.15
2022-08-17T06:09:04.368Z,24.75
2022-08-17T06:11:08.813Z,24.57
2022-08-17T06:13:11.332Z,24.74
2022-08-17T06:15:16.061Z,24.56
2022-08-17T06:17:19.482Z,24.67
2022-08-17T06:19:30.596Z,24.86
2022-08-17T06:21:33.412Z,24.97
2022-08-17T06:23:36.417Z,25.27
2022-08-17T06:25:39.226Z,25.39
2022-08-17T06:27:41.362Z,25.09
2022-08-17T06:29:45.803Z,25.10
2022-08-17T06:31:47.279Z,25.13
2022-08-17T06:33:50.147Z,25.10
2022-08-17T06:35:53.038Z,25.16
2022-08-17T06:37:58.375Z,25.32
2022-08-17T06:40:03.106Z,25.11
2022-08-17T06:42:07.993Z,24.97
2022-08-17T06:44:11.056Z,25.24
2022-08-17T06:46:13.336Z,24.92
2022-08-17T06:48:15.701Z,24.98
2022-08-17T06:50:20.265Z,24.87
2022-08-17T06:52:45.974Z,24.93
2022-08-17T06:54:46.790Z,25.13
2022-08-17T06:56:54.136Z,24.91
2022-08-17T06:58:56.666Z,24.87
2022-08-17T07:00:59.238Z,25.03
2022-08-17T07:03:01.882Z,25.17
2022-08-17T07:05:03.658Z,25.34
2022-08-17T07:07:06.971Z,25.36
2022-08-17T07:09:10.327Z,24.99
2022-08-17T07:11:13.515Z,25.54
2022-08-17T07:13:27.451Z,25.49
2022-08-17T07:15:30.904Z,25.46
2022-08-17T07:17:46.574Z,25.29
2022-08-17T07:19:49.960Z,24.94
2022-08-17T07:21:52.423Z,25.01
2022-08-17T07:24:01.323Z,25.33
2022-08-17T07:26:04.286Z,25.13
2022-08-17T07:28:06.996Z,25.18
2022-08-17T07:30:11.058Z,25.44
2022-08-17T07:32:14.043Z,25.43
2022-08-17T07:34:15.522Z,25.44
2022-08-17T07:36:26.466Z,25.19
2022-08-17T07:38:31.267Z,24.86
2022-08-17T07:40:34.953Z,25.26
2022-08-17T07:42:36.503Z,25.38
2022-08-17T07:44:44.764Z,25.04
2022-08-17T07:46:49.757Z,24.83
2022-08-17T07:48:52.506Z,25.16
2022-08-17T07:50:54.028Z,24.90
2022-08-17T07:52:55.553Z,24.95
2022-08-17T07:54:57.070Z,24.94
2022-08-17T07:57:00.752Z,25.46
2022-08-17T07:59:09.613Z,25.28
2022-08-17T08:01:14.506Z,24.63
2022-08-17T08:03:21.193Z,24.92
2022-08-17T08:05:30.842Z,24.66
2022-08-17T08:07:50.648Z,24.67
2022-08-17T08:10:00.536Z,24.83
2022-08-17T08:12:21.696Z,24.20
2022-08-17T08:14:28.398Z,24.42
2022-08-17T08:16:30.332Z,24.03
2022-08-17T08:18:54.317Z,23.97
2022-08-17T08:20:55.580Z,23.75
2022-08-17T08:22:58.949Z,23.85
2022-08-17T08:25:03.797Z,24.38
2022-08-17T08:27:07.547Z,24.46
2022-08-17T08:29:13.176Z,24.35
2022-08-17T08:31:17.467Z,24.53
2022-08-17T08:33:29.976Z,24.39
2022-08-17T08:35:31.995Z,24.98
2022-08-17T08:37:44.801Z,24.69
2022-08-17T08:39:48.278Z,24.64
2022-08-17T08:41:51.225Z,24.75
2022-08-17T08:43:55.779Z,24.97
2022-08-17T08:46:00.427Z,25.52
2022-08-17T08:48:05.968Z,25.67
2022-08-17T08:50:37.377Z,25.73
2022-08-17T08:52:44.901Z,25.64
2022-08-17T08:54:47.445Z,25.17
2022-08-17T08:57:11.983Z,25.44
2022-08-17T08:59:14.411Z,25.63
2022-08-17T09:01:18.493Z,25.86
2022-08-17T09:03:31.770Z,26.31
2022-08-17T09:05:52.932Z,26.20
2022-08-17T09:07:57.676Z,26.59
2022-08-17T09:09:59.944Z,25.95
2022-08-17T09:12:03.823Z,26.18
2022-08-17T09:14:21.145Z,26.07
2022-08-17T09:16:25.522Z,26.20
2022-08-17T09:19:01.475Z,25.99
2022-08-17T09:20:50.422Z,26.08
2022-08-17T09:22:53.675Z,26.12
2022-08-17T09:24:56.745Z,25.58
2022-08-17T09:26:59.117Z,25.97
2022-08-17T09:29:01.615Z,25.61
2022-08-17T09:31:07.925Z,25.11
2022-08-17T09:33:12.161Z,25.20
2022-08-17T09:35:14.988Z,24.86
2022-08-17T09:37:18.996Z,25.04
2022-08-17T09:39:24.310Z,25.01
2022-08-17T09:41:28.595Z,25.05
2022-08-17T09:43:31.566Z,25.26
2022-08-17T09:45:34.846Z,25.35
2022-08-17T09:47:37.508Z,25.44
2022-08-17T09:49:42.816Z,25.07
2022-08-17T09:51:45.195Z,25.19
2022-08-17T09:53:46.713Z,25.44
2022-08-17T09:55:53.000Z,25.19
2022-08-17T09:57:55.991Z,25.40
2022-08-17T10:00:01.524Z,25.42
2022-08-17T10:02:05.961Z,25.49
2022-08-17T10:04:10.958Z,25.86
2022-08-17T10:06:21.621Z,25.62
2022-08-17T10:08:29.503Z,25.88
2022-08-17T10:10:32.514Z,25.74
2022-08-17T10:12:36.506Z,25.78
2022-08-17T10:14:44.140Z,25.75
2022-08-17T10:16:48.953Z,25.99
2022-08-17T10:18:54.118Z,26.32
2022-08-17T10:20:57.461Z,26.27
2022-08-17T10:23:01.471Z,26.31
2022-08-17T10:25:22.581Z,26.45
2022-08-17T10:27:25.956Z,26.38
2022-08-17T10:29:28.980Z,26.52
2022-08-17T10:31:35.384Z,26.70
2022-08-17T10:33:39.666Z,26.77
2022-08-17T10:35:42.983Z,26.75
2022-08-17T10:37:48.004Z,27.09
2022-08-17T10:39:53.175Z,27.01
2022-08-17T10:41:55.538Z,27.59
2022-08-17T10:44:40.817Z,27.50
2022-08-17T10:46:30.532Z,27.57
2022-08-17T10:48:33.499Z,27.00
2022-08-17T10:50:46.257Z,26.65
2022-08-17T10:52:47.947Z,25.90
2022-08-17T10:55:05.983Z,26.63
2022-08-17T10:57:26.386Z,26.99
2022-08-17T10:59:45.849Z,27.22
2022-08-17T11:01:55.179Z,27.00
2022-08-17T11:03:57.097Z,26.59
2022-08-17T11:06:00.307Z,27.08
2022-08-17T11:08:22.754Z,27.48
2022-08-17T11:10:30.672Z,27.14
2022-08-17T11:12:34.883Z,27.55
2022-08-17T11:14:39.750Z,27.61
2022-08-17T11:16:43.924Z,27.78
2022-08-17T11:19:05.411Z,27.98
2022-08-17T11:21:13.446Z,28.60
2022-08-17T11:23:35.532Z,28.31
2022-08-17T11:25:39.015Z,28.88
2022-08-17T11:27:40.573Z,29.24
2022-08-17T11:29:52.082Z,29.75
2022-08-17T11:31:59.362Z,29.29
2022-08-17T11:34:01.777Z,30.55
2022-08-17T11:36:06.889Z,30.94
2022-08-17T11:38:16.257Z,30.71
2022-08-17T11:40:21.966Z,31.01
2022-08-17T11:42:27.943Z,31.68
2022-08-17T11:44:32.414Z,32.42
2022-08-17T11:46:36.055Z,32.61
2022-08-17T11:48:38.516Z,33.25
2022-08-17T11:50:44.583Z,32.76
2022-08-17T11:52:47.135Z,32.53
2022-08-17T11:54:48.735Z,32.54
2022-08-17T11:56:50.626Z,31.57
2022-08-17T11:58:53.583Z,31.56
2022-08-17T12:00:56.010Z,30.82
2022-08-17T12:03:12.419Z,29.98
2022-08-17T12:05:33.276Z,29.90
2022-08-17T12:07:34.805Z,30.25
2022-08-17T12:09:38.026Z,30.23
2022-08-17T12:12:05.840Z,29.48
2022-08-17T12:14:04.327Z,29.19
2022-08-17T12:16:06.027Z,28.59
2022-08-17T12:18:07.521Z,29.08
2022-08-17T12:20:11.105Z,29.24
2022-08-17T12:22:13.120Z,29.65
2022-08-17T12:24:17.877Z,29.96
2022-08-17T12:26:19.886Z,30.41
2022-08-17T12:28:22.428Z,31.76
2022-08-17T12:30:25.793Z,31.58
2022-08-17T12:32:28.154Z,32.86
2022-08-17T12:34:34.417Z,32.60
2022-08-17T12:36:35.935Z,31.92
2022-08-17T12:38:37.559Z,33.08
2022-08-17T12:40:39.068Z,33.15
2022-08-17T12:42:40.550Z,33.01
2022-08-17T12:44:50.652Z,33.72
2022-08-17T12:46:55.299Z,33.39
2022-08-17T12:49:10.494Z,33.31
2022-08-17T12:51:11.988Z,32.20
2022-08-17T12:53:14.023Z,32.11
2022-08-17T12:55:17.987Z,30.71
2022-08-17T12:57:20.512Z,30.88
2022-08-17T12:59:29.759Z,30.46
2022-08-17T13:01:32.065Z,30.79
2022-08-17T13:03:36.670Z,30.99
2022-08-17T13:05:38.943Z,30.50
2022-08-17T13:07:40.940Z,30.99
2022-08-17T13:09:49.826Z,31.23
2022-08-17T13:11:52.728Z,32.04
2022-08-17T13:13:54.945Z,33.43
2022-08-17T13:15:57.314Z,34.22
2022-08-17T13:18:00.448Z,35.65
2022-08-17T13:20:04.145Z,36.00
2022-08-17T13:22:09.070Z,36.48
2022-08-17T13:24:14.218Z,37.38
2022-08-17T13:26:15.683Z,37.48
2022-08-17T13:28:17.283Z,37.14
2022-08-17T13:30:21.217Z,38.57
2022-08-17T13:32:23.360Z,39.00
2022-08-17T13:34:33.323Z,39.04
2022-08-17T13:36:36.367Z,37.90
2022-08-17T13:38:39.064Z,39.26
2022-08-17T13:40:45.742Z,41.01
2022-08-17T13:42:52.898Z,41.02
2022-08-17T13:44:55.453Z,41.14
2022-08-17T13:46:57.073Z,39.63
2022-08-17T13:48:59.971Z,39.44
2022-08-17T13:51:19.470Z,39.32
2022-08-17T13:53:23.617Z,39.60
2022-08-17T13:55:25.108Z,39.26
2022-08-17T13:57:26.622Z,39.12
2022-08-17T13:59:52.618Z,40.34
2022-08-17T14:01:56.021Z,41.34
2022-08-17T14:03:57.844Z,40.48
2022-08-17T14:05:59.403Z,40.29
2022-08-17T14:08:01.544Z,41.28
2022-08-17T14:10:11.483Z,42.79
2022-08-17T14:12:13.826Z,44.05
2022-08-17T14:14:15.532Z,44.30
2022-08-17T14:16:17.145Z,44.57
2022-08-17T14:18:18.637Z,44.95
2022-08-17T14:20:37.249Z,45.35
2022-08-17T14:22:40.134Z,45.61
2022-08-17T14:24:44.886Z,45.03
2022-08-17T14:26:48.006Z,45.51
2022-08-17T14:28:56.690Z,45.58
2022-08-17T14:30:58.500Z,45.48
2022-08-17T14:32:59.996Z,45.69
2022-08-17T14:35:01.773Z,45.75
2022-08-17T14:37:03.284Z,45.22
2022-08-17T14:39:05.051Z,43.81
2022-08-17T14:41:06.615Z,47.42
2022-08-17T14:43:09.504Z,49.76
2022-08-17T14:45:29.554Z,49.25
2022-08-17T14:47:33.081Z,47.01
2022-08-17T14:49:34.612Z,45.25
2022-08-17T14:51:36.138Z,46.03
2022-08-17T14:53:45.151Z,47.07
2022-08-17T14:55:47.122Z,47.12
2022-08-17T14:57:50.208Z,46.46
2022-08-17T14:59:54.772Z,45.74
2022-08-17T15:01:56.783Z,46.35
2022-08-17T15:03:58.300Z,47.42
2022-08-17T15:05:59.819Z,47.54
2022-08-17T15:08:01.487Z,43.31
2022-08-17T15:10:03.172Z,44.10
2022-08-17T15:12:04.876Z,42.08
2022-08-17T15:14:06.444Z,41.42
2022-08-17T15:16:12.122Z,41.31
2022-08-17T15:18:13.646Z,39.34
2022-08-17T15:20:15.692Z,42.20
2022-08-17T15:22:18.430Z,46.19
2022-08-17T15:24:19.957Z,46.44
2022-08-17T15:26:26.075Z,46.48
2022-08-17T15:28:27.926Z,43.86
2022-08-17T15:30:29.428Z,45.85
2022-08-17T15:32:34.813Z,45.91
2022-08-17T15:34:36.321Z,46.62
2022-08-17T15:36:37.865Z,44.82
2022-08-17T15:38:44.396Z,44.24
2022-08-17T15:40:47.053Z,44.86
2022-08-17T15:42:48.536Z,43.90
2022-08-17T15:44:50.085Z,44.84
2022-08-17T15:46:51.614Z,43.41
2022-08-17T15:48:55.023Z,42.79
2022-08-17T15:50:56.522Z,42.95
2022-08-17T15:52:58.693Z,44.11
2022-08-17T15:55:00.906Z,42.27
2022-08-17T15:57:02.392Z,41.91
2022-08-17T15:59:03.912Z,41.71
2022-08-17T16:01:16.468Z,42.57
2022-08-17T16:03:46.899Z,43.75
2022-08-17T16:05:42.659Z,43.90
2022-08-17T16:07:44.329Z,43.86
2022-08-17T16:09:45.864Z,42.99
2022-08-17T16:11:53.815Z,44.23
2022-08-17T16:13:57.320Z,45.33
2022-08-17T16:15:58.854Z,41.91
2022-08-17T16:18:00.375Z,40.89
2022-08-17T16:20:01.899Z,43.47
2022-08-17T16:22:05.499Z,44.43
2022-08-17T16:24:12.745Z,46.33
2022-08-17T16:26:15.299Z,46.88
2022-08-17T16:28:17.188Z,47.51
2022-08-17T16:30:19.446Z,47.58
2022-08-17T16:32:22.006Z,46.68
2022-08-17T16:34:33.717Z,44.80
2022-08-17T16:36:35.199Z,45.41
2022-08-17T16:38:38.080Z,46.02
2022-08-17T16:40:39.571Z,44.91
2022-08-17T16:42:41.755Z,43.95
2022-08-17T16:44:43.264Z,45.04
2022-08-17T16:46:45.578Z,44.25
2022-08-17T16:48:47.896Z,47.00
2022-08-17T16:51:03.729Z,48.50
2022-08-17T16:53:06.819Z,46.84
2022-08-17T16:55:10.172Z,43.95
2022-08-17T16:57:15.142Z,46.34
2022-08-17T16:59:30.806Z,46.20
2022-08-17T17:01:33.918Z,47.16
2022-08-17T17:03:35.588Z,48.13
2022-08-17T17:05:42.806Z,46.88
2022-08-17T17:07:47.580Z,47.18
2022-08-17T17:09:49.146Z,47.69
2022-08-17T17:11:53.262Z,48.59
2022-08-17T17:13:55.559Z,46.94
2022-08-17T17:15:57.848Z,42.74
2022-08-17T17:18:06.756Z,40.49
2022-08-17T17:20:10.382Z,39.01
2022-08-17T17:22:14.314Z,37.37
2022-08-17T17:24:17.097Z,39.54
2022-08-17T17:26:22.949Z,40.89
2022-08-17T17:28:26.921Z,39.33
2022-08-17T17:30:29.991Z,35.22
2022-08-17T17:32:34.152Z,33.79
2022-08-17T17:34:35.663Z,33.12
2022-08-17T17:36:38.278Z,32.59
2022-08-17T17:38:40.742Z,32.02
2022-08-17T17:40:43.061Z,31.96
2022-08-17T17:42:44.603Z,31.57
2022-08-17T17:44:48.982Z,33.22
2022-08-17T17:46:51.668Z,34.05
2022-08-17T17:48:53.200Z,34.59
2022-08-17T17:50:56.126Z,33.78
2022-08-17T17:52:59.458Z,32.88
2022-08-17T17:55:04.047Z,32.91
2022-08-17T17:57:07.631Z,33.08
2022-08-17T17:59:12.527Z,31.80
2022-08-17T18:01:22.901Z,32.67
2022-08-17T18:03:30.499Z,32.17
2022-08-17T18:05:34.187Z,33.29
2022-08-17T18:07:37.265Z,32.60
2022-08-17T18:10:01.426Z,31.77
2022-08-17T18:12:07.036Z,31.17
2022-08-17T18:14:15.185Z,30.86
2022-08-17T18:16:16.691Z,30.24
2022-08-17T18:18:30.688Z,30.04
2022-08-17T18:20:36.041Z,29.86
2022-08-17T18:22:53.732Z,29.94
2022-08-17T18:24:55.404Z,29.59
2022-08-17T18:26:57.495Z,29.00
2022-08-17T18:28:59.066Z,28.85
2022-08-17T18:31:11.029Z,28.52
2022-08-17T18:33:19.479Z,28.26
2022-08-17T18:35:28.653Z,28.07
2022-08-17T18:37:32.225Z,27.92
2022-08-17T18:39:33.905Z,27.42
2022-08-17T18:41:39.863Z,27.45
2022-08-17T18:43:52.954Z,27.96
2022-08-17T18:45:55.931Z,27.87
2022-08-17T18:47:57.557Z,27.49
2022-08-17T18:49:59.629Z,27.33
2022-08-17T18:52:10.959Z,27.56
2022-08-17T18:54:14.537Z,27.25
2022-08-17T18:56:26.558Z,27.22
2022-08-17T18:58:28.038Z,27.48
2022-08-17T19:00:32.802Z,27.35
2022-08-17T19:02:45.168Z,27.06
2022-08-17T19:05:08.361Z,26.82
2022-08-17T19:07:23.573Z,27.28
2022-08-17T19:09:29.595Z,27.51
2022-08-17T19:11:32.205Z,27.32
2022-08-17T19:13:35.113Z,27.12
2022-08-17T19:15:38.261Z,27.13
2022-08-17T19:17:42.713Z,26.96
2022-08-17T19:19:46.558Z,27.40
2022-08-17T19:21:50.569Z,27.18
2022-08-17T19:23:54.656Z,27.03
2022-08-17T19:25:56.608Z,26.88
2022-08-17T19:28:01.431Z,27.03
2022-08-17T19:30:08.397Z,27.01
2022-08-17T19:32:10.971Z,27.07
2022-08-17T19:34:12.634Z,26.95
2022-08-17T19:36:17.830Z,26.76
2022-08-17T19:38:22.679Z,26.26
2022-08-17T19:40:51.153Z,26.30
2022-08-17T19:42:52.234Z,26.37
2022-08-17T19:44:54.381Z,26.26
2022-08-17T19:47:00.813Z,25.90
2022-08-17T19:49:04.187Z,25.94
2022-08-17T19:51:06.743Z,25.99
2022-08-17T19:53:11.599Z,25.80
2022-08-17T19:55:20.225Z,25.99
2022-08-17T19:57:25.620Z,26.02
2022-08-17T19:59:35.933Z,26.06
2022-08-17T20:01:39.121Z,25.95
2022-08-17T20:03:43.899Z,25.78
2022-08-17T20:06:09.167Z,25.86
2022-08-17T20:08:07.927Z,25.41
2022-08-17T20:10:10.852Z,25.72
2022-08-17T20:12:13.955Z,25.61
2022-08-17T20:14:17.766Z,25.38
2022-08-17T20:16:19.270Z,25.46
2022-08-17T20:18:22.307Z,25.76
2022-08-17T20:20:27.044Z,25.70
2022-08-17T20:22:36.809Z,25.67
2022-08-17T20:24:53.520Z,25.61
2022-08-17T20:26:58.918Z,25.63
2022-08-17T20:29:05.309Z,25.66
2022-08-17T20:31:21.667Z,25.55
2022-08-17T20:33:25.766Z,25.57
2022-08-17T20:35:29.513Z,25.73
2022-08-17T20:37:31.643Z,25.78
2022-08-17T20:39:34.757Z,25.79
2022-08-17T20:41:36.365Z,25.80
2022-08-17T20:43:45.530Z,25.78
2022-08-17T20:46:01.927Z,25.75
2022-08-17T20:48:38.071Z,25.74
2022-08-17T20:50:33.658Z,25.46
2022-08-17T20:52:43.759Z,25.18
2022-08-17T20:54:49.199Z,25.20
2022-08-17T20:56:52.172Z,24.98
2022-08-17T20:58:53.714Z,25.13
2022-08-17T21:01:09.574Z,25.11
2022-08-17T21:03:47.998Z,25.05
2022-08-17T21:06:00.032Z,25.15
2022-08-17T21:08:12.365Z,25.20
2022-08-17T21:10:15.071Z,25.05
2022-08-17T21:12:31.440Z,25.07
2022-08-17T21:14:34.434Z,25.05
2022-08-17T21:16:41.098Z,25.10
2022-08-17T21:18:44.651Z,25.04
2022-08-17T21:20:47.347Z,25.13
2022-08-17T21:22:53.298Z,25.12
2022-08-17T21:24:55.948Z,25.12
2022-08-17T21:27:00.323Z,25.20
2022-08-17T21:29:29.861Z,25.24
2022-08-17T21:31:30.146Z,25.24
2022-08-17T21:33:36.211Z,25.23
2022-08-17T21:35:48.147Z,25.28
2022-08-17T21:37:50.421Z,25.11
2022-08-17T21:39:54.811Z,25.26
2022-08-17T21:41:57.353Z,25.16
2022-08-17T21:44:04.314Z,25.12
2022-08-17T21:46:06.887Z,25.05
2022-08-17T21:48:10.501Z,25.05
2022-08-17T21:50:16.990Z,25.12
2022-08-17T21:52:19.181Z,25.12
2022-08-17T21:54:24.094Z,25.12
2022-08-17T21:56:27.884Z,25.18
2022-08-17T21:58:31.420Z,25.11
2022-08-17T22:00:32.960Z,25.11
2022-08-17T22:02:34.964Z,24.91
2022-08-17T22:04:37.388Z,24.89
2022-08-17T22:06:39.741Z,25.07
2022-08-17T22:08:41.263Z,25.05
2022-08-17T22:10:43.722Z,24.93
2022-08-17T22:13:00.156Z,24.79
2022-08-17T22:15:04.348Z,24.87
2022-08-17T22:17:16.260Z,25.03
2022-08-17T22:19:17.749Z,24.77
2022-08-17T22:21:19.289Z,24.52
2022-08-17T22:23:25.872Z,24.35
2022-08-17T22:25:27.542Z,24.09
2022-08-17T22:27:43.654Z,23.84
2022-08-17T22:29:49.502Z,23.97
2022-08-17T22:31:56.162Z,23.81
2022-08-17T22:34:07.231Z,23.82
2022-08-17T22:36:09.827Z,23.51
2022-08-17T22:38:25.238Z,23.41
2022-08-17T22:40:27.734Z,23.50
2022-08-17T22:42:29.233Z,23.45
2022-08-17T22:44:31.379Z,23.68
2022-08-17T22:46:32.997Z,23.71
2022-08-17T22:48:35.871Z,23.81
2022-08-17T22:50:37.359Z,23.99
2022-08-17T22:52:39.825Z,23.90
2022-08-17T22:54:41.320Z,23.77
2022-08-17T22:56:46.984Z,23.63
2022-08-17T22:58:59.200Z,23.89
2022-08-17T23:01:15.866Z,24.01
2022-08-17T23:03:18.277Z,23.67
2022-08-17T23:05:21.684Z,23.73
2022-08-17T23:07:23.257Z,23.95
2022-08-17T23:09:24.754Z,23.79
2022-08-17T23:11:36.934Z,23.98
2022-08-17T23:13:48.787Z,23.98
2022-08-17T23:15:50.296Z,23.68
2022-08-17T23:17:51.859Z,23.39
2022-08-17T23:19:53.492Z,23.23
2022-08-17T23:21:57.154Z,23.36
2022-08-17T23:23:58.909Z,23.45
2022-08-17T23:26:00.454Z,23.46
2022-08-17T23:28:02.460Z,23.48
2022-08-17T23:30:04.166Z,23.33
2022-08-17T23:32:05.676Z,23.23
2022-08-17T23:34:09.288Z,23.36
2022-08-17T23:36:11.005Z,23.59
2022-08-17T23:38:14.094Z,23.71
2022-08-17T23:40:15.690Z,23.72
2022-08-17T23:42:17.946Z,23.40
2022-08-17T23:44:19.442Z,23.44
2022-08-17T23:46:21.785Z,23.56
2022-08-17T23:48:28.408Z,23.68
2022-08-17T23:50:37.998Z,23.73
2022-08-17T23:52:39.668Z,23.64
2022-08-17T23:54:43.832Z,23.53
2022-08-17T23:56:45.495Z,23.58
2022-08-17T23:58:47.094Z,23.47
